Time;durP1;ratioP1;P1;durP2;ratioP2;P2;SDS_P1;SDS_P2;PMS_P1;PMS_P2;Temp;Humidity;BMP_temperature;BMP_pressure;BME280_temperature;BME280_humidity;BME280_pressure;Samples;Min_cycle;Max_cycle;Signal;HPM_P1;HPM_P2
2023/08/01 00:03:55;;;;;;;1.98;1.27;;;;;;;20.53;61.88;95866.09;10534171;28;20054;-29
2023/08/01 00:08:56;;;;;;;1.67;1.37;;;;;;;20.50;61.45;95843.28;10536505;28;20028;-29
2023/08/01 00:13:56;;;;;;;3.17;1.37;;;;;;;20.47;61.54;95848.44;10525651;28;20181;-29
2023/08/01 00:18:56;;;;;;;1.60;1.40;;;;;;;20.45;61.59;95845.09;10533684;28;20437;-29
2023/08/01 00:23:57;;;;;;;1.97;1.30;;;;;;;20.45;61.61;95817.13;10535013;28;20379;-29
2023/08/01 00:28:57;;;;;;;2.75;1.67;;;;;;;20.43;61.54;95807.84;10546751;28;20167;-29
2023/08/01 00:33:58;;;;;;;2.97;1.67;;;;;;;20.44;61.44;95807.81;10525870;28;20024;-29
2023/08/01 00:38:58;;;;;;;3.23;1.90;;;;;;;20.52;65.71;95797.47;10522735;28;20118;-29
2023/08/01 00:43:58;;;;;;;3.20;2.00;;;;;;;20.59;67.41;95799.84;10535229;28;20371;-29
2023/08/01 00:49:00;;;;;;;2.23;1.67;;;;;;;20.61;64.00;95784.53;10531902;28;20024;-29
2023/08/01 00:54:00;;;;;;;1.58;1.38;;;;;;;20.53;61.89;95789.81;10532559;28;20043;-29
2023/08/01 00:59:01;;;;;;;1.92;1.27;;;;;;;20.47;61.56;95777.22;10525807;28;20032;-29
2023/08/01 01:04:01;;;;;;;1.70;1.30;;;;;;;20.47;61.60;95789.94;10504195;28;20028;-29
2023/08/01 01:09:04;;;;;;;1.90;1.30;;;;;;;20.45;61.76;95768.81;10524322;28;20058;-29
2023/08/01 01:14:05;;;;;;;1.55;0.90;;;;;;;20.46;61.63;95762.84;10525786;28;20027;-29
2023/08/01 01:19:08;;;;;;;1.50;1.10;;;;;;;20.44;61.58;95756.97;10534394;28;20031;-29
2023/08/01 01:24:11;;;;;;;1.38;1.17;;;;;;;20.43;61.52;95757.84;10527357;28;20094;-29
2023/08/01 01:29:13;;;;;;;1.88;1.63;;;;;;;20.49;63.66;95724.66;10527257;28;20060;-29
2023/08/01 01:34:13;;;;;;;2.75;1.95;;;;;;;20.59;67.70;95721.03;10515988;28;20024;-31
2023/08/01 01:39:13;;;;;;;2.57;1.80;;;;;;;20.61;64.15;95724.34;10515137;28;20105;-29
2023/08/01 01:44:14;;;;;;;1.57;1.20;;;;;;;20.53;62.20;95730.47;10507873;28;20126;-29
2023/08/01 01:49:14;;;;;;;1.57;1.13;;;;;;;20.49;61.62;95706.88;10522265;28;20097;-29
2023/08/01 01:54:14;;;;;;;1.40;1.30;;;;;;;20.45;61.87;95719.69;10532083;28;20027;-29
2023/08/01 01:59:15;;;;;;;2.13;1.20;;;;;;;20.46;61.68;95714.53;10535933;28;20036;-29
2023/08/01 02:04:19;;;;;;;1.45;1.23;;;;;;;20.45;61.75;95705.25;10509614;28;20039;-29
2023/08/01 02:09:21;;;;;;;1.85;1.27;;;;;;;20.44;61.76;95729.00;10539182;28;20065;-29
2023/08/01 02:14:22;;;;;;;1.80;1.40;;;;;;;20.43;61.79;95727.34;10514418;28;20097;-29
2023/08/01 02:19:23;;;;;;;3.23;1.50;;;;;;;20.52;65.39;95716.94;10533395;28;20900;-28
2023/08/01 02:24:23;;;;;;;3.22;1.98;;;;;;;20.58;66.58;95708.34;10505437;28;21308;-31
2023/08/01 02:29:24;;;;;;;2.35;1.73;;;;;;;20.61;64.85;95718.41;10505940;28;20043;-29
2023/08/01 02:34:24;;;;;;;2.77;1.27;;;;;;;20.54;62.48;95706.75;10541411;28;20708;-29
2023/08/01 02:39:25;;;;;;;1.60;1.03;;;;;;;20.48;61.81;95692.44;10533905;28;20044;-29
2023/08/01 02:44:25;;;;;;;1.83;1.02;;;;;;;20.45;62.27;95700.16;10515260;28;20027;-29
2023/08/01 02:49:26;;;;;;;2.05;1.20;;;;;;;20.41;62.11;95679.94;10525001;28;20521;-29
2023/08/01 02:54:26;;;;;;;1.90;1.40;;;;;;;20.46;62.25;95724.72;10520619;28;20563;-29
2023/08/01 02:59:26;;;;;;;1.53;1.30;;;;;;;20.46;62.74;95719.63;10519467;28;20042;-29
2023/08/01 03:04:27;;;;;;;1.33;1.10;;;;;;;20.44;62.20;95721.38;10503030;28;20298;-29
2023/08/01 03:09:27;;;;;;;2.07;1.87;;;;;;;20.53;65.56;95728.78;10502407;28;20032;-29
2023/08/01 03:14:27;;;;;;;2.60;1.67;;;;;;;20.61;65.23;95767.59;10517641;28;20486;-29
2023/08/01 03:19:28;;;;;;;2.07;1.87;;;;;;;20.62;64.13;95774.34;10528975;28;20513;-29
2023/08/01 03:24:28;;;;;;;2.07;1.60;;;;;;;20.56;62.69;95755.84;10521157;28;20036;-30
2023/08/01 03:29:28;;;;;;;1.73;1.13;;;;;;;20.49;61.72;95770.44;10528385;28;20035;-30
2023/08/01 03:34:29;;;;;;;1.23;1.05;;;;;;;20.48;62.51;95775.53;10555377;28;20104;-29
2023/08/01 03:39:29;;;;;;;3.60;1.40;;;;;;;20.42;62.31;95767.22;10544654;28;20039;-29
2023/08/01 03:44:31;;;;;;;1.30;1.08;;;;;;;20.46;62.46;95762.84;10533356;28;20063;-30
2023/08/01 03:49:33;;;;;;;1.48;1.23;;;;;;;20.45;62.63;95750.19;10516502;28;20032;-29
2023/08/01 03:54:35;;;;;;;2.17;1.80;;;;;;;20.43;62.36;95744.28;10534114;28;20030;-29
2023/08/01 03:59:35;;;;;;;11.25;1.70;;;;;;;20.52;64.49;95699.16;10535492;28;20046;-28
2023/08/01 04:04:38;;;;;;;3.08;1.70;;;;;;;20.59;64.40;95694.75;10543216;28;20118;-29
2023/08/01 04:09:38;;;;;;;2.40;1.63;;;;;;;20.62;63.83;95684.50;10528591;28;20114;-29
2023/08/01 04:14:39;;;;;;;1.60;1.30;;;;;;;20.54;62.10;95684.69;10532326;28;20020;-29
2023/08/01 04:19:39;;;;;;;1.90;1.20;;;;;;;20.51;61.96;95686.47;10507509;28;20032;-29
2023/08/01 04:24:39;;;;;;;1.65;1.17;;;;;;;20.49;61.78;95681.44;10480400;28;20516;-29
2023/08/01 04:29:40;;;;;;;1.37;1.10;;;;;;;20.48;61.74;95653.50;10522321;28;20032;-29
2023/08/01 04:34:41;;;;;;;2.47;1.77;;;;;;;20.41;61.69;95644.34;10536023;28;20039;-29
2023/08/01 04:39:42;;;;;;;2.20;1.40;;;;;;;20.46;61.95;95633.19;10534211;28;20032;-29
2023/08/01 04:44:42;;;;;;;1.50;1.30;;;;;;;20.45;61.82;95631.53;10517926;28;20024;-29
2023/08/01 04:49:42;;;;;;;2.67;1.87;;;;;;;20.54;65.05;95625.38;10529777;28;20459;-29
2023/08/01 04:54:45;;;;;;;3.23;2.27;;;;;;;20.62;66.07;95674.34;10527209;28;20394;-30
2023/08/01 04:59:45;;;;;;;2.53;1.95;;;;;;;20.63;65.20;95696.34;10529244;28;20278;-29
2023/08/01 05:04:46;;;;;;;2.70;1.70;;;;;;;20.57;62.94;95692.22;10541487;28;20346;-29
2023/08/01 05:09:46;;;;;;;1.73;1.33;;;;;;;20.53;62.33;95679.63;10529347;28;20031;-29
2023/08/01 05:14:47;;;;;;;1.67;1.20;;;;;;;20.48;62.03;95623.81;10528489;28;20081;-29
2023/08/01 05:19:47;;;;;;;4.30;1.08;;;;;;;20.46;61.95;95572.16;10535368;28;20058;-29
2023/08/01 05:24:47;;;;;;;8.47;1.73;;;;;;;20.49;62.31;95549.22;10536139;28;20478;-29
2023/08/01 05:29:50;;;;;;;3.90;1.80;;;;;;;20.48;62.29;95552.63;10525316;28;20293;-29
2023/08/01 05:34:51;;;;;;;14.25;3.00;;;;;;;20.55;64.02;95592.25;10537744;28;20111;-29
2023/08/01 05:39:51;;;;;;;5.82;2.30;;;;;;;20.52;62.76;95607.63;10539287;28;20119;-29
2023/08/01 05:44:51;;;;;;;11.33;3.30;;;;;;;20.67;65.09;95630.13;10533756;28;20077;-29
2023/08/01 05:49:52;;;;;;;18.70;3.83;;;;;;;20.59;65.22;95642.19;10525578;28;20035;-29
2023/08/01 05:54:52;;;;;;;7.73;2.67;;;;;;;20.55;62.86;95637.22;10520093;28;20028;-29
2023/08/01 05:59:53;;;;;;;7.60;1.83;;;;;;;20.51;62.24;95621.19;10538094;28;20281;-29
2023/08/01 06:04:53;;;;;;;4.82;1.67;;;;;;;20.49;62.06;95628.03;10523687;28;20031;-29
2023/08/01 06:09:53;;;;;;;2.80;1.90;;;;;;;20.48;62.19;95626.34;10537407;28;20039;-29
2023/08/01 06:14:54;;;;;;;6.63;1.97;;;;;;;20.47;62.14;95608.59;10543349;28;20398;-29
2023/08/01 06:19:54;;;;;;;5.15;2.10;;;;;;;20.47;62.42;95606.88;10538098;28;20035;-29
2023/08/01 06:24:55;;;;;;;3.58;1.75;;;;;;;20.46;62.19;95623.00;10538157;28;20036;-29
2023/08/01 06:29:55;;;;;;;5.17;3.23;;;;;;;20.50;64.42;95583.94;10545117;28;20027;-29
2023/08/01 06:34:55;;;;;;;6.30;3.10;;;;;;;20.57;64.98;95603.22;10529278;28;20032;-29
2023/08/01 06:39:57;;;;;;;6.13;2.67;;;;;;;20.57;64.45;95600.69;10536310;28;20082;-29
2023/08/01 06:44:58;;;;;;;3.90;2.53;;;;;;;20.52;63.00;95607.63;10545013;28;20115;-29
2023/08/01 06:49:58;;;;;;;2.87;2.03;;;;;;;20.49;62.26;95634.81;10544541;28;20114;-29
2023/08/01 06:54:59;;;;;;;2.73;2.17;;;;;;;20.47;61.89;95639.13;10520385;28;20028;-28
2023/08/01 06:59:59;;;;;;;2.40;1.77;;;;;;;20.45;62.05;95648.50;10529804;28;20035;-28
2023/08/01 07:04:59;;;;;;;3.53;2.58;;;;;;;20.46;62.24;95640.81;10502515;28;20107;-29
2023/08/01 07:10:00;;;;;;;3.27;2.20;;;;;;;20.39;62.13;95621.50;10515000;28;20043;-29
2023/08/01 07:15:00;;;;;;;3.07;2.03;;;;;;;20.45;62.15;95638.31;10537158;28;20489;-29
2023/08/01 07:20:00;;;;;;;2.60;2.10;;;;;;;20.48;64.63;95636.50;10526452;28;20418;-28
2023/08/01 07:25:01;;;;;;;3.00;1.93;;;;;;;20.54;65.21;95616.03;10532695;28;20375;-29
2023/08/01 07:30:01;;;;;;;3.63;2.37;;;;;;;20.57;64.56;95640.56;10548947;28;20505;-29
2023/08/01 07:35:02;;;;;;;3.08;1.67;;;;;;;20.51;63.41;95636.47;10548428;28;20274;-29
2023/08/01 07:40:02;;;;;;;2.78;1.77;;;;;;;20.47;62.16;95639.13;10530675;28;20074;-29
2023/08/01 07:45:03;;;;;;;3.63;1.60;;;;;;;20.46;62.34;95629.81;10535031;28;20036;-29
2023/08/01 07:50:04;;;;;;;1.92;1.40;;;;;;;20.43;62.33;95633.28;10521729;28;20448;-28
2023/08/01 07:55:05;;;;;;;2.30;1.60;;;;;;;20.43;62.16;95643.44;10534163;28;20417;-29
2023/08/01 08:00:06;;;;;;;2.05;1.60;;;;;;;20.43;62.29;95642.59;10538265;28;20028;-29
2023/08/01 08:05:13;;;;;;;1.80;1.40;;;;;;;20.42;62.28;95620.59;10539429;28;20516;-29
2023/08/01 08:10:15;;;;;;;1.70;1.37;;;;;;;20.46;65.00;95633.19;10539774;28;20047;-30
2023/08/01 08:15:15;;;;;;;1.60;1.20;;;;;;;20.53;65.42;95624.53;10551257;28;20459;-29
2023/08/01 08:20:16;;;;;;;4.15;1.38;;;;;;;20.52;65.16;95617.78;10529967;28;20719;-29
2023/08/01 08:25:16;;;;;;;2.60;1.30;;;;;;;20.49;63.81;95620.41;10535474;28;20028;-29
2023/08/01 08:30:19;;;;;;;1.60;1.03;;;;;;;20.45;62.20;95606.09;10534729;28;20046;-30
2023/08/01 08:35:19;;;;;;;1.45;1.20;;;;;;;20.44;62.27;95606.13;10535906;28;20471;-29
2023/08/01 08:40:20;;;;;;;1.23;0.87;;;;;;;20.44;62.17;95608.66;10550686;28;20076;-30
2023/08/01 08:45:24;;;;;;;2.55;0.93;;;;;;;20.42;62.25;95607.88;10536568;28;20298;-30
2023/08/01 08:50:25;;;;;;;1.17;0.90;;;;;;;20.42;62.06;95618.91;10530527;28;20036;-29
2023/08/01 08:55:27;;;;;;;1.92;1.38;;;;;;;20.42;62.16;95613.81;10542115;28;20109;-29
2023/08/01 09:00:27;;;;;;;1.42;1.10;;;;;;;20.48;65.25;95603.47;10535554;28;20160;-29
2023/08/01 09:05:34;;;;;;;3.95;1.80;;;;;;;20.55;65.78;95607.53;10539474;28;20474;-29
2023/08/01 09:10:34;;;;;;;;;;;;;;;20.58;64.89;95607.47;10537122;28;20148;-29
2023/08/01 09:15:35;;;;;;;2.00;1.27;;;;;;;20.50;63.30;95589.03;10551163;28;20448;-29
2023/08/01 09:20:46;;;;;;;1.50;1.02;;;;;;;20.46;62.14;95595.03;10531967;28;20067;-29
2023/08/01 09:25:47;;;;;;;1.30;0.93;;;;;;;20.44;62.44;95601.03;10527004;28;20032;-29
2023/08/01 09:30:52;;;;;;;1.67;1.10;;;;;;;20.42;61.88;95601.09;10556085;28;20051;-29
2023/08/01 09:35:52;;;;;;;3.08;1.05;;;;;;;20.42;62.88;95614.69;10535205;28;20028;-29
2023/08/01 09:40:53;;;;;;;1.50;0.90;;;;;;;20.42;62.03;95621.44;10531726;28;20409;-28
2023/08/01 09:45:53;;;;;;;3.77;1.40;;;;;;;20.42;62.03;95607.88;10538516;28;20040;-30
2023/08/01 09:51:08;;;;;;;1.70;1.25;;;;;;;20.44;64.66;95613.75;10539823;28;20104;-28
2023/08/01 09:56:11;;;;;;;1.80;1.30;;;;;;;20.58;65.35;95626.97;10535633;28;20028;-29
2023/08/01 10:01:14;;;;;;;1.35;1.08;;;;;;;20.59;64.32;95626.94;10534192;28;20535;-28
2023/08/01 10:06:22;;;;;;;1.10;1.00;;;;;;;20.49;62.90;95648.38;10532122;28;20705;-29
2023/08/01 10:11:22;;;;;;;2.38;1.10;;;;;;;20.46;62.24;95633.19;10533242;28;20115;-29
2023/08/01 10:16:24;;;;;;;2.72;1.10;;;;;;;20.46;62.01;95640.81;10533674;28;20119;-29
2023/08/01 10:21:26;;;;;;;1.33;1.10;;;;;;;20.43;62.06;95650.22;10539164;28;20036;-29
2023/08/01 10:26:26;;;;;;;5.05;1.10;;;;;;;20.43;61.69;95643.44;10537253;28;20036;-29
2023/08/01 10:31:27;;;;;;;1.75;1.10;;;;;;;20.42;61.99;95646.00;10529179;28;20539;-29
2023/08/01 10:36:29;;;;;;;1.08;0.98;;;;;;;20.42;61.87;95640.09;10546618;28;20123;-30
2023/08/01 10:41:34;;;;;;;1.63;1.33;;;;;;;20.48;64.79;95640.78;10540834;28;20037;-29
2023/08/01 10:46:57;;;;;;;2.67;1.20;;;;;;;20.60;65.50;95651.47;10532121;28;20075;-31
2023/08/01 10:51:58;;;;;;;1.98;1.23;;;;;;;20.61;63.99;95660.78;10529054;28;20048;-29
2023/08/01 10:56:59;;;;;;;2.53;1.10;;;;;;;20.52;62.51;95663.56;10545327;28;20051;-29
2023/08/01 11:02:02;;;;;;;1.08;0.90;;;;;;;20.48;61.89;95666.22;10539445;28;20070;-29
2023/08/01 11:07:04;;;;;;;1.88;1.13;;;;;;;20.44;61.92;95670.53;10545809;28;20458;-29
2023/08/01 11:12:05;;;;;;;1.70;0.93;;;;;;;20.45;61.88;95676.47;10533562;28;20054;-29
2023/08/01 11:17:06;;;;;;;1.65;0.90;;;;;;;20.43;61.78;95679.03;10540754;28;20040;-30
2023/08/01 11:22:10;;;;;;;1.90;1.27;;;;;;;20.44;61.92;95665.44;10549783;28;20077;-29
2023/08/01 11:27:10;;;;;;;1.08;0.93;;;;;;;20.43;61.96;95665.47;10540802;28;20040;-29
2023/08/01 11:32:12;;;;;;;1.53;1.17;;;;;;;20.51;64.63;95666.97;10532185;28;20023;-29
2023/08/01 11:37:14;;;;;;;1.45;1.20;;;;;;;20.61;64.62;95670.94;10535864;28;20435;-29
2023/08/01 11:42:16;;;;;;;1.77;1.13;;;;;;;20.64;63.76;95668.31;10543399;28;20110;-29
2023/08/01 11:47:17;;;;;;;1.40;1.02;;;;;;;20.56;63.08;95642.25;10534599;28;20038;-29
2023/08/01 11:52:25;;;;;;;2.10;0.80;;;;;;;20.49;61.95;95625.50;10545304;28;20060;-29
2023/08/01 11:57:26;;;;;;;1.10;1.00;;;;;;;20.47;61.79;95611.16;10532053;28;20085;-29
2023/08/01 12:02:29;;;;;;;1.38;1.05;;;;;;;20.44;61.74;95612.06;10544264;28;20449;-29
2023/08/01 12:07:30;;;;;;;1.10;0.80;;;;;;;20.44;61.85;95624.78;10547702;28;20054;-29
2023/08/01 12:12:30;;;;;;;2.27;1.13;;;;;;;20.42;61.95;95621.44;10552815;28;20035;-29
2023/08/01 12:17:31;;;;;;;0.75;0.65;;;;;;;20.43;61.91;95638.34;10540039;28;20056;-29
2023/08/01 12:22:32;;;;;;;2.38;1.40;;;;;;;20.48;63.56;95641.59;10550306;28;20043;-29
2023/08/01 12:27:33;;;;;;;1.17;1.00;;;;;;;20.62;64.20;95639.56;10550191;28;20034;-29
2023/08/01 12:32:35;;;;;;;1.13;0.97;;;;;;;20.66;63.39;95648.78;10540604;28;20023;-29
2023/08/01 12:37:35;;;;;;;0.93;0.82;;;;;;;20.61;61.99;95652.31;10549109;28;20659;-29
2023/08/01 12:42:35;;;;;;;1.80;0.80;;;;;;;20.59;61.70;95657.44;10541888;28;20028;-29
2023/08/01 12:47:36;;;;;;;0.80;0.80;;;;;;;20.60;61.60;95676.91;10542255;28;20042;-29
2023/08/01 12:52:36;;;;;;;1.33;0.90;;;;;;;20.59;61.62;95670.16;10549636;28;20023;-29
2023/08/01 12:57:36;;;;;;;1.10;1.00;;;;;;;20.53;61.47;95675.38;10546765;28;20028;-28
2023/08/01 13:02:37;;;;;;;1.90;0.93;;;;;;;20.58;61.67;95671.03;10535772;28;20036;-29
2023/08/01 13:07:38;;;;;;;0.90;0.77;;;;;;;20.58;61.84;95678.66;10532487;28;20043;-31
2023/08/01 13:12:38;;;;;;;2.40;0.90;;;;;;;20.57;61.81;95684.59;10543851;28;20051;-29
2023/08/01 13:17:39;;;;;;;1.15;1.05;;;;;;;20.66;63.90;95679.31;10530068;28;20421;-29
2023/08/01 13:22:39;;;;;;;1.60;1.08;;;;;;;20.70;62.28;95682.59;10526919;28;20032;-29
2023/08/01 13:27:39;;;;;;;1.30;0.77;;;;;;;20.66;61.86;95673.38;10531629;28;20115;-29
2023/08/01 13:32:41;;;;;;;2.35;2.15;;;;;;;20.63;61.63;95683.63;10532147;28;20039;-29
2023/08/01 13:37:41;;;;;;;1.75;1.48;;;;;;;20.63;62.03;95717.53;10535221;28;20032;-29
2023/08/01 13:42:42;;;;;;;1.17;0.97;;;;;;;20.61;61.84;95711.63;10536707;28;20443;-29
2023/08/01 13:47:42;;;;;;;0.60;0.60;;;;;;;20.60;61.76;95725.22;10534167;28;20282;-29
2023/08/01 13:52:42;;;;;;;1.60;1.00;;;;;;;20.59;61.82;95736.28;10533797;28;20021;-29
2023/08/01 13:57:43;;;;;;;0.77;0.65;;;;;;;20.60;61.77;95722.69;10531182;28;20340;-29
2023/08/01 14:02:43;;;;;;;2.20;0.73;;;;;;;20.60;61.77;95715.06;10544091;28;20028;-29
2023/08/01 14:07:43;;;;;;;1.57;0.97;;;;;;;20.72;63.97;95724.91;10546513;28;20027;-29
2023/08/01 14:12:44;;;;;;;0.63;0.63;;;;;;;20.72;62.91;95717.28;10551922;28;20032;-29
2023/08/01 14:17:44;;;;;;;0.98;0.88;;;;;;;20.66;61.83;95706.44;10548238;28;20047;-28
2023/08/01 14:22:46;;;;;;;1.77;0.90;;;;;;;20.63;61.63;95707.34;10529712;28;20804;-29
2023/08/01 14:27:46;;;;;;;1.27;0.75;;;;;;;20.60;61.49;95706.59;10536960;28;20032;-29
2023/08/01 14:32:46;;;;;;;0.67;0.60;;;;;;;20.60;61.74;95698.94;10542314;28;20024;-29
2023/08/01 14:37:48;;;;;;;0.57;0.50;;;;;;;20.60;61.83;95704.88;10546047;28;20032;-30
2023/08/01 14:42:49;;;;;;;0.88;0.65;;;;;;;20.57;61.84;95687.13;10532027;28;20032;-29
2023/08/01 14:47:49;;;;;;;1.33;0.75;;;;;;;20.58;61.92;95696.47;10530473;28;20059;-28
2023/08/01 14:52:49;;;;;;;1.33;1.03;;;;;;;20.59;61.90;95694.75;10541829;28;20095;-29
2023/08/01 14:57:50;;;;;;;4.03;1.43;;;;;;;20.73;64.27;95697.78;10531315;28;20441;-29
2023/08/01 15:02:51;;;;;;;5.33;1.57;;;;;;;20.77;64.16;95704.47;10524570;28;20033;-29
2023/08/01 15:07:51;;;;;;;2.05;0.80;;;;;;;20.67;62.05;95719.13;10534020;28;20028;-29
2023/08/01 15:12:52;;;;;;;1.70;0.90;;;;;;;20.61;61.87;95732.00;10529530;28;20028;-29
2023/08/01 15:17:52;;;;;;;0.90;0.80;;;;;;;20.62;61.69;95736.19;10540612;28;20293;-30
2023/08/01 15:22:53;;;;;;;1.10;0.90;;;;;;;20.59;61.99;95726.09;10544257;28;20027;-29
2023/08/01 15:27:53;;;;;;;2.03;0.73;;;;;;;20.60;62.03;95727.78;10543616;28;20032;-29
2023/08/01 15:32:53;;;;;;;2.03;0.70;;;;;;;20.58;62.00;95737.16;10532678;28;20032;-29
2023/08/01 15:37:54;;;;;;;1.27;0.60;;;;;;;20.60;61.67;95726.94;10541149;28;20277;-29
2023/08/01 15:42:54;;;;;;;2.00;0.77;;;;;;;20.57;61.65;95747.34;10522834;28;20039;-29
2023/08/01 15:47:55;;;;;;;5.87;1.03;;;;;;;20.72;64.83;95741.91;10537570;28;20473;-29
2023/08/01 15:52:55;;;;;;;1.90;0.80;;;;;;;20.77;64.46;95747.69;10529884;28;20508;-29
2023/08/01 15:57:55;;;;;;;1.47;1.23;;;;;;;20.68;62.06;95738.59;10539495;28;20783;-29
2023/08/01 16:02:56;;;;;;;1.40;0.80;;;;;;;20.64;61.36;95752.25;10520105;28;20298;-29
2023/08/01 16:07:56;;;;;;;3.27;0.87;;;;;;;20.60;61.78;95743.03;10537777;28;20486;-29
2023/08/01 16:12:56;;;;;;;1.77;1.00;;;;;;;20.59;61.96;95746.44;10523842;28;20436;-29
2023/08/01 16:17:57;;;;;;;1.10;0.60;;;;;;;20.57;62.00;95755.81;10533160;28;20553;-29
2023/08/01 16:22:57;;;;;;;0.85;0.63;;;;;;;20.57;61.79;95763.44;10533382;28;20036;-29
2023/08/01 16:27:58;;;;;;;1.00;0.80;;;;;;;20.57;61.95;95778.69;10536917;28;20028;-31
2023/08/01 16:32:58;;;;;;;2.08;0.80;;;;;;;20.59;61.82;95786.28;10530550;28;20032;-29
2023/08/01 16:37:58;;;;;;;4.23;1.37;;;;;;;20.74;64.82;95791.88;10539950;28;20032;-29
2023/08/01 16:43:00;;;;;;;3.83;1.07;;;;;;;20.78;64.23;95783.28;10545893;28;20028;-29
2023/08/01 16:48:00;;;;;;;1.27;0.88;;;;;;;20.70;61.99;95794.50;10529873;28;20033;-29
2023/08/01 16:53:00;;;;;;;0.80;0.47;;;;;;;20.65;61.73;95804.78;10526268;28;20028;-29
2023/08/01 16:58:01;;;;;;;1.60;0.60;;;;;;;20.62;61.75;95822.66;10529583;28;20042;-29
2023/08/01 17:03:01;;;;;;;1.07;0.70;;;;;;;20.55;61.86;95828.75;10545339;28;20036;-29
2023/08/01 17:08:01;;;;;;;2.37;0.80;;;;;;;20.58;62.09;95823.63;10544124;28;20519;-29
2023/08/01 17:13:02;;;;;;;4.38;0.95;;;;;;;20.58;62.74;95826.16;10532945;28;20046;-29
2023/08/01 17:18:02;;;;;;;4.03;0.70;;;;;;;20.56;61.88;95811.81;10544241;28;20053;-29
2023/08/01 17:23:03;;;;;;;2.50;0.87;;;;;;;20.57;61.86;95811.75;10535257;28;20518;-29
2023/08/01 17:28:03;;;;;;;1.37;0.90;;;;;;;20.74;64.99;95812.22;10537656;28;20359;-29
2023/08/01 17:33:04;;;;;;;4.97;1.50;;;;;;;20.79;63.58;95825.66;10534387;28;20032;-29
2023/08/01 17:38:04;;;;;;;3.05;0.70;;;;;;;20.69;62.13;95829.28;10533478;28;20102;-29
2023/08/01 17:43:08;;;;;;;1.00;0.60;;;;;;;20.65;61.75;95845.47;10532921;28;20567;-29
2023/08/01 17:48:09;;;;;;;0.80;0.70;;;;;;;20.61;61.73;95858.28;10533951;28;20059;-29
2023/08/01 17:53:10;;;;;;;1.23;0.73;;;;;;;20.59;61.57;95855.81;10533238;28;20039;-29
2023/08/01 17:58:10;;;;;;;1.52;0.90;;;;;;;20.58;61.83;95874.47;10533057;28;20092;-28
2023/08/01 18:03:10;;;;;;;1.80;0.90;;;;;;;20.57;61.62;95875.31;10530543;28;20028;-30
2023/08/01 18:08:11;;;;;;;0.73;0.70;;;;;;;20.58;61.79;95882.13;10526648;28;20289;-29
2023/08/01 18:13:11;;;;;;;1.60;1.00;;;;;;;20.61;62.72;95894.75;10531624;28;20371;-29
2023/08/01 18:18:11;;;;;;;1.80;0.87;;;;;;;20.75;64.41;95900.38;10530763;28;20036;-30
2023/08/01 18:23:12;;;;;;;1.90;0.90;;;;;;;20.78;63.49;95904.53;10529015;28;20348;-29
2023/08/01 18:28:12;;;;;;;0.80;0.57;;;;;;;20.69;61.67;95905.59;10531030;28;20032;-29
2023/08/01 18:33:13;;;;;;;1.27;0.90;;;;;;;20.66;62.58;95900.59;10528716;28;20032;-29
2023/08/01 18:38:13;;;;;;;2.10;0.80;;;;;;;20.63;62.11;95913.34;10530330;28;20031;-29
2023/08/01 18:43:14;;;;;;;2.10;1.05;;;;;;;20.63;61.85;95931.16;10529542;28;20028;-29
2023/08/01 18:48:14;;;;;;;1.57;0.80;;;;;;;20.61;61.47;95939.69;10525408;28;20028;-29
2023/08/01 18:53:15;;;;;;;1.50;0.93;;;;;;;20.59;61.38;95939.72;10526480;28;20298;-29
2023/08/01 18:58:16;;;;;;;2.60;1.27;;;;;;;20.62;59.84;95938.84;10528216;28;20413;-29
2023/08/01 19:03:16;;;;;;;2.55;0.98;;;;;;;20.62;59.77;95939.66;10525843;28;20032;-30
2023/08/01 19:08:17;;;;;;;1.60;1.07;;;;;;;20.71;60.08;95949.63;10524886;28;20036;-30
2023/08/01 19:13:17;;;;;;;4.00;0.90;;;;;;;20.76;60.34;95962.25;10528865;28;20297;-29
2023/08/01 19:18:17;;;;;;;1.77;0.90;;;;;;;20.69;61.28;95966.66;10531205;28;20044;-29
2023/08/01 19:23:19;;;;;;;2.53;0.70;;;;;;;20.62;61.14;95970.19;10549752;28;20959;-29
2023/08/01 19:28:20;;;;;;;1.13;0.70;;;;;;;20.60;61.23;95979.56;10533972;28;20119;-29
2023/08/01 19:33:20;;;;;;;1.42;0.85;;;;;;;20.59;61.38;95984.66;10526954;28;20043;-30
2023/08/01 19:38:21;;;;;;;1.30;0.67;;;;;;;20.58;61.38;95983.00;10528276;28;20040;-29
2023/08/01 19:43:21;;;;;;;1.90;0.63;;;;;;;20.52;61.22;95971.22;10529050;28;20294;-29
2023/08/01 19:48:22;;;;;;;0.70;0.63;;;;;;;20.61;61.27;95990.53;10538798;28;20093;-29
2023/08/01 19:53:23;;;;;;;1.15;0.88;;;;;;;20.61;61.14;95999.03;10523663;28;20063;-28
2023/08/01 19:58:24;;;;;;;5.55;1.70;;;;;;;20.74;62.55;95999.63;10536649;28;20402;-29
2023/08/01 20:03:28;;;;;;;14.43;2.55;;;;;;;20.79;63.17;95997.84;10554529;28;20038;-29
2023/08/01 20:08:31;;;;;;;2.00;0.80;;;;;;;20.70;61.39;95993.75;10539707;28;20089;-29
2023/08/01 20:13:31;;;;;;;1.60;0.85;;;;;;;20.64;61.07;96004.03;10534379;28;20034;-29
2023/08/01 20:18:31;;;;;;;4.00;1.00;;;;;;;20.63;61.42;95989.66;10550651;28;20388;-30
2023/08/01 20:23:32;;;;;;;2.43;0.80;;;;;;;20.60;61.33;95992.28;10527187;28;20394;-29
2023/08/01 20:28:32;;;;;;;1.75;0.70;;;;;;;20.59;61.33;95995.69;10557549;28;20101;-30
2023/08/01 20:33:33;;;;;;;1.15;0.80;;;;;;;20.59;61.34;96003.31;10540752;28;20024;-28
2023/08/01 20:38:34;;;;;;;1.48;0.80;;;;;;;20.58;61.26;96009.28;10542927;28;20036;-29
2023/08/01 20:43:34;;;;;;;1.33;0.80;;;;;;;20.59;61.34;96010.94;10538421;28;20485;-29
2023/08/01 20:48:34;;;;;;;4.73;1.43;;;;;;;20.71;63.57;96010.69;10533695;28;20133;-30
2023/08/01 20:53:35;;;;;;;3.27;1.17;;;;;;;20.76;62.94;96013.13;10555098;28;20398;-29
2023/08/01 20:58:35;;;;;;;1.03;0.80;;;;;;;20.69;61.75;96022.59;10538213;28;20301;-29
2023/08/01 21:03:36;;;;;;;1.13;0.80;;;;;;;20.64;61.15;96021.03;10524635;28;20043;-29
2023/08/01 21:08:39;;;;;;;2.28;0.75;;;;;;;20.61;61.16;96011.75;10536970;28;20081;-29
2023/08/01 21:13:45;;;;;;;2.15;0.80;;;;;;;20.59;61.30;96010.94;10532003;28;20219;-29
2023/08/01 21:18:46;;;;;;;4.32;0.90;;;;;;;20.58;61.24;96011.81;10556942;28;20056;-29
2023/08/01 21:23:46;;;;;;;0.85;0.70;;;;;;;20.54;61.30;96017.81;10531051;28;20036;-29
2023/08/01 21:28:46;;;;;;;1.40;0.63;;;;;;;20.56;61.35;96016.06;10530249;28;20043;-29
2023/08/01 21:33:47;;;;;;;1.70;0.97;;;;;;;20.57;61.14;96022.00;10523157;28;20032;-29
2023/08/01 21:38:48;;;;;;;1.70;0.90;;;;;;;20.70;63.80;96014.09;10524262;28;20040;-29
2023/08/01 21:43:48;;;;;;;1.30;1.20;;;;;;;20.75;65.31;96006.38;10535670;28;20524;-29
2023/08/01 21:48:48;;;;;;;1.43;0.83;;;;;;;20.70;62.30;96009.00;10525903;28;20092;-28
2023/08/01 21:53:49;;;;;;;0.93;0.73;;;;;;;20.64;61.22;96011.66;10533218;28;20671;-29
2023/08/01 21:58:50;;;;;;;0.77;0.77;;;;;;;20.61;61.33;96001.56;10531723;28;20309;-28
2023/08/01 22:03:50;;;;;;;1.33;1.00;;;;;;;20.58;61.45;95993.16;10537341;28;20043;-29
2023/08/01 22:08:51;;;;;;;1.30;0.80;;;;;;;20.57;61.17;95989.75;10529498;28;20040;-29
2023/08/01 22:13:51;;;;;;;1.80;0.57;;;;;;;20.58;61.17;95991.47;10536380;28;20606;-29
2023/08/01 22:18:51;;;;;;;1.70;0.80;;;;;;;20.56;61.34;95985.56;10526322;28;20456;-29
2023/08/01 22:23:52;;;;;;;1.17;0.77;;;;;;;20.55;61.38;95978.78;10537593;28;20033;-29
2023/08/01 22:28:53;;;;;;;1.70;1.10;;;;;;;20.66;66.19;95987.06;10539239;28;20044;-29
2023/08/01 22:33:54;;;;;;;2.08;1.10;;;;;;;20.71;66.30;95992.06;10534752;28;20028;-29
2023/08/01 22:38:54;;;;;;;1.47;1.10;;;;;;;20.69;62.92;95992.09;10532609;28;20034;-28
2023/08/01 22:43:58;;;;;;;1.07;0.83;;;;;;;20.62;61.60;95990.53;10544111;28;20077;-28
2023/08/01 22:48:58;;;;;;;1.70;0.80;;;;;;;20.60;61.48;95983.78;10534455;28;20332;-29
2023/08/01 22:53:59;;;;;;;1.75;0.70;;;;;;;20.53;61.37;95972.91;10522820;28;20062;-29
2023/08/01 22:59:01;;;;;;;0.80;0.70;;;;;;;20.53;61.44;95980.53;10542223;28;20093;-29
2023/08/01 23:04:02;;;;;;;1.55;0.90;;;;;;;20.57;61.29;95989.75;10533378;28;20044;-29
2023/08/01 23:09:02;;;;;;;0.80;0.57;;;;;;;20.54;61.28;95984.75;10537501;28;20458;-29
2023/08/01 23:14:03;;;;;;;2.30;0.73;;;;;;;20.52;61.41;95983.94;10549434;28;20043;-30
2023/08/01 23:19:03;;;;;;;1.17;0.97;;;;;;;20.62;64.97;95972.72;10532695;28;20565;-29